AirNav   LUX Fuel
 
airports navaids fix Aviation Fuel airboss iphoneapp
 1920 users online  

7F2 Dupree Municipal Airport
Dupree, South Dakota, USA


FAA INFORMATION EFFECTIVE 09 FEBRUARY 2012

Location

FAA Identifier: 7F2
Lat/Long: 45-02-59.9330N / 101-37-26.5620W
45-02.998883N / 101-37.442700W
45.0499814 / -101.6240450
(estimated)
Elevation: 2341 ft. / 713.5 m (surveyed)
Variation: 10E (1985)
Time zone: UTC -7 (UTC -6 during Daylight Saving Time)
Zip code: 57623

Airport Operations

Airport use: Open to the public
Activation date: 08/1953
Sectional chart: BILLINGS
Control tower: no
ARTCC: MINNEAPOLIS CENTER
FSS: HURON FLIGHT SERVICE STATION
NOTAMs facility: HON (NOTAM-D service available)
Attendance: UNATNDD
Wind indicator: yes
Segmented circle: yes

Airport Communications

CTAF: 122.9
WX AWOS-A at 84D (16 nm E): 122.8 (617-262-3825)
WX AWOS-2 at D07 (17 nm W): 122.8 (617-2623825)

Nearby radio navigation aids

VOR radial/distance  VOR name  Freq  Var
DPRr104/4.2DUPREE VORTAC116.8010E

Airport Services

Parking: tiedowns
Powerplant service: NONE
Bottled oxygen: NONE
Bulk oxygen: NONE

Runway Information

Runway 14/32

Dimensions: 2400 x 200 ft. / 732 x 61 m
Surface: turf, in poor condition
RY IS CLOSED INDEFINITELY.
Runway edge markings: 14/32 MARKED WITH YELLOW & BLACK A-FRAME MARKERS.
RUNWAY 14  RUNWAY 32
Latitude: 45-02.898833N45-02.538833N
Longitude: 101-36.492667W101-36.263500W
Elevation: 2328.0 ft.2341.0 ft.
Gradient: 0.5%0.5%
Traffic pattern: leftleft
Runway end identifier lights: nono
Obstructions: 13 ft. road, 260 ft. from runway, 20:1 slope to clear18 ft. road, 370 ft. from runway, 20:1 slope to clear

Airport Ownership and Management from official FAA records

Ownership: Publicly-owned
Owner: TOWN OF DUPREE
PO BOX 276
DUPREE, SD 57623
Phone 605-365-5181
Manager: ROBIN DUPREE
TOWN OF DUPREE, PO BOX 276
DUPREE, SD 57623
Phone 605-365-5181

Airport Operational Statistics

Aircraft based on the field: 1
Single engine airplanes: 1
    
Aircraft operations: 15/year *
67% local general aviation
33% transient general aviation
* for 12-month period ending 27 April 2010

Additional Remarks

RY 32 FENCE 125 FT L 226 FT FM THLD & 125 FT R 100 FT FM THLD.
RY 14 FENCE 125 FT L 185 FT FM THLD & 75 FT L 300 FT FM THLD.
DAYLIGHT USE ONLY
EMERGENCY USE ONLY

Instrument Procedures

There are no published instrument procedures at 7F2.

Some nearby airports with instrument procedures:

84D - Cheyenne Eagle Butte Airport (16 nm E)
KLEM - Lemmon Municipal Airport (56 nm N)
KMBG - Mobridge Municipal Airport (59 nm NE)
KPHP - Philip Airport (60 nm S)
KPIR - Pierre Regional Airport (70 nm SE)
 
Loc | Ops | Rwys | IFR | FBO | Links
Com | Nav | Svcs | Stats | Notes

Richmor Aviation Stewart
AirBoss

 
Area around 7F2 (Dupree Municipal Airport)
 
Road maps at: MapQuest MapPoint Yahoo! Maps Google Rand McNally
Satellite photo at: TerraServer Virtual Earth

 
Aerial photo
No photo
 
Sectional chart

 
Airport distance calculator
Flying to Dupree Municipal Airport? Find the distance to fly.

From to 7F2

Sunrise and sunset
Times for 30-Mar-2012
 Local
(UTC-6)
 Zulu
(UTC)
Morning civil twilight06:0012:00
Sunrise06:3012:30
Sunset19:1201:12
Evening civil twilight19:4101:41

Current date and time
Zulu (UTC)  30-Mar-2012 16:09:40
Local (UTC-6)  30-Mar-2012 10:09:40
 
METAR
84D 
16nm E 
SuperAWOS
301455Z AUTO 10009G16KT 10SM 10/04 A2979
KD07 
17nm W 
301556Z AUTO 20004KT 12/03 A2969 RMK AO2 SLP058 T01220033 PWINO TSNO
D07 
17nm W 
SuperAWOS
301535Z AUTO 13004KT 10SM 12/04 A2972
TAF
NOTAMs
Click for the latest NOTAMs
NOTAMs are issued by the DoD/FAA and will open in a separate window not controlled by AirNav.

 

 
 

Would you like to see your business listed on this page?

 If your business provides an interesting product or service to pilots, flight crews, aircraft, or users of the Dupree Municipal Airport, you should consider listing it here.  To start the listing process, click on the button below
 
Add a business
 

Other Pages about Dupree Municipal Airport

Update a link
 
Copyright © AirNav, LLC. All rights reserved. Privacy Policy  Contact